Time,TemperatureF,DewpointF,PressureIn,WindDirection,WindDirectionDegrees,WindSpeedMPH,WindSpeedGustMPH,Humidity,HourlyPrecipIn,Conditions,Clouds,dailyrainin,SolarRadiationWatts/m^2,SoftwareType,DateUTC
2013-03-10 00:00:00,26.9,22.4,30.13,North,-999,0.0,0.0,83,0.00,,,-99.99,0,WeatherLink 5.7,2013-03-10 07:00:00,
2013-03-10 00:05:00,26.7,22.2,30.13,North,-999,0.0,0.0,83,0.00,,,-99.99,0,WeatherLink 5.7,2013-03-10 07:05:00,
2013-03-10 00:10:00,26.4,21.9,30.13,North,-999,0.0,0.0,83,0.00,,,-99.99,0,WeatherLink 5.7,2013-03-10 07:10:00,
2013-03-10 00:15:00,26.3,21.8,30.16,North,-999,0.0,0.0,83,0.00,,,-99.99,0,WeatherLink 5.7,2013-03-10 07:15:00,
2013-03-10 00:20:00,26.1,21.6,30.16,North,-999,0.0,0.0,83,0.00,,,-99.99,0,WeatherLink 5.7,2013-03-10 07:20:00,
2013-03-10 00:25:00,26.1,21.6,30.16,North,-999,0.0,0.0,83,0.00,,,-99.99,0,WeatherLink 5.7,2013-03-10 07:25:00,
2013-03-10 00:30:00,25.8,21.6,30.17,North,-999,0.0,0.0,84,0.00,,,-99.99,0,WeatherLink 5.7,2013-03-10 07:30:00,
2013-03-10 00:35:00,25.7,21.5,30.17,North,-999,0.0,0.0,84,0.00,,,-99.99,0,WeatherLink 5.7,2013-03-10 07:35:00,
2013-03-10 00:40:00,25.5,21.3,30.17,North,-999,0.0,0.0,84,0.00,,,-99.99,0,WeatherLink 5.7,2013-03-10 07:40:00,
2013-03-10 00:45:00,25.3,21.1,30.17,North,-999,0.0,0.0,84,0.00,,,-99.99,0,WeatherLink 5.7,2013-03-10 07:45:00,
2013-03-10 00:50:00,25.0,20.8,30.17,North,-999,0.0,0.0,84,0.00,,,-99.99,0,WeatherLink 5.7,2013-03-10 07:50:00,
2013-03-10 00:55:00,24.7,20.6,30.17,North,-999,0.0,0.0,84,0.00,,,-99.99,0,WeatherLink 5.7,2013-03-10 07:55:00,
2013-03-10 01:00:00,24.5,20.4,30.18,North,-999,0.0,0.0,84,0.00,,,-99.99,0,WeatherLink 5.7,2013-03-10 08:00:00,
2013-03-10 01:05:00,24.4,20.3,30.18,North,-999,0.0,0.0,84,0.00,,,-99.99,0,WeatherLink 5.7,2013-03-10 08:05:00,
2013-03-10 01:10:00,24.1,20.0,30.18,North,-999,0.0,0.0,84,0.00,,,-99.99,0,WeatherLink 5.7,2013-03-10 08:10:00,
2013-03-10 01:15:00,23.9,19.8,30.19,North,-999,0.0,0.0,84,0.00,,,-99.99,0,WeatherLink 5.7,2013-03-10 08:15:00,
2013-03-10 01:20:00,23.6,19.5,30.19,North,-999,0.0,0.0,84,0.00,,,-99.99,0,WeatherLink 5.7,2013-03-10 08:20:00,
2013-03-10 01:25:00,23.5,19.4,30.19,North,-999,0.0,0.0,84,0.00,,,-99.99,0,WeatherLink 5.7,2013-03-10 08:25:00,
2013-03-10 01:30:00,23.0,18.9,30.22,NE,45,0.0,2.0,84,0.00,,,-99.99,0,WeatherLink 5.7,2013-03-10 08:30:00,
2013-03-10 01:35:00,22.4,18.0,30.22,ENE,67,0.0,2.0,83,0.00,,,-99.99,0,WeatherLink 5.7,2013-03-10 08:35:00,
2013-03-10 01:40:00,22.1,17.7,30.22,ENE,67,1.0,3.0,83,0.00,,,-99.99,0,WeatherLink 5.7,2013-03-10 08:40:00,
2013-03-10 01:45:00,21.9,17.2,30.22,ENE,67,0.0,1.0,82,0.00,,,-99.99,0,WeatherLink 5.7,2013-03-10 08:45:00,
2013-03-10 01:50:00,21.8,16.9,30.22,ENE,67,0.0,2.0,81,0.00,,,-99.99,0,WeatherLink 5.7,2013-03-10 08:50:00,
2013-03-10 01:55:00,21.6,16.4,30.22,ENE,67,0.0,2.0,80,0.00,,,-99.99,0,WeatherLink 5.7,2013-03-10 08:55:00,
2013-03-10 03:00:00,21.6,16.4,30.22,North,-999,0.0,0.0,80,0.00,,,-99.99,0,WeatherLink 5.7,2013-03-10 09:00:00,
2013-03-10 03:05:00,21.5,16.3,30.22,North,-999,0.0,0.0,80,0.00,,,-99.99,0,WeatherLink 5.7,2013-03-10 09:05:00,
2013-03-10 03:10:00,21.3,16.1,30.22,North,-999,0.0,0.0,80,0.00,,,-99.99,0,WeatherLink 5.7,2013-03-10 09:10:00,
2013-03-10 03:15:00,21.1,15.9,30.22,North,-999,0.0,0.0,80,0.00,,,-99.99,0,WeatherLink 5.7,2013-03-10 09:15:00,
2013-03-10 03:20:00,21.0,15.8,30.22,ENE,67,0.0,1.0,80,0.00,,,-99.99,0,WeatherLink 5.7,2013-03-10 09:20:00,
2013-03-10 03:25:00,20.5,15.3,30.22,ENE,67,0.0,2.0,80,0.00,,,-99.99,0,WeatherLink 5.7,2013-03-10 09:25:00,
2013-03-10 03:30:00,20.3,15.1,30.24,ENE,67,0.0,2.0,80,0.00,,,-99.99,0,WeatherLink 5.7,2013-03-10 09:30:00,
2013-03-10 03:35:00,20.3,15.1,30.24,North,-999,0.0,0.0,80,0.00,,,-99.99,0,WeatherLink 5.7,2013-03-10 09:35:00,
2013-03-10 03:40:00,20.2,15.0,30.24,North,-999,0.0,0.0,80,0.00,,,-99.99,0,WeatherLink 5.7,2013-03-10 09:40:00,
2013-03-10 03:45:00,20.0,14.8,30.24,North,-999,0.0,0.0,80,0.00,,,-99.99,0,WeatherLink 5.7,2013-03-10 09:45:00,
2013-03-10 03:57:00,19.9,14.7,30.24,North,-999,0.0,0.0,80,0.00,,,-99.99,0,WeatherLink 5.7,2013-03-10 09:57:00,
2013-03-10 04:05:00,19.6,14.4,30.24,ENE,67,0.0,2.0,80,0.00,,,-99.99,0,WeatherLink 5.7,2013-03-10 10:05:00,
2013-03-10 04:10:00,19.4,13.9,30.24,ENE,67,0.0,2.0,79,0.00,,,-99.99,0,WeatherLink 5.7,2013-03-10 10:10:00,
2013-03-10 04:20:00,19.1,13.7,30.25,North,-999,0.0,0.0,79,0.00,,,-99.99,0,WeatherLink 5.7,2013-03-10 10:20:00,
2013-03-10 04:25:00,18.8,13.4,30.25,ENE,67,0.0,2.0,79,0.00,,,-99.99,0,WeatherLink 5.7,2013-03-10 10:25:00,
2013-03-10 04:30:00,18.6,13.2,30.25,North,-999,0.0,0.0,79,0.00,,,-99.99,0,WeatherLink 5.7,2013-03-10 10:30:00,
2013-03-10 04:35:00,18.3,12.9,30.25,North,-999,0.0,0.0,79,0.00,,,-99.99,0,WeatherLink 5.7,2013-03-10 10:35:00,
2013-03-10 04:40:00,18.3,12.9,30.25,North,-999,0.0,0.0,79,0.00,,,-99.99,0,WeatherLink 5.7,2013-03-10 10:40:00,
2013-03-10 04:50:00,18.0,12.9,30.28,North,-999,0.0,0.0,80,0.00,,,-99.99,0,WeatherLink 5.7,2013-03-10 10:50:00,
2013-03-10 04:55:00,17.8,12.7,30.28,North,-999,0.0,0.0,80,0.00,,,-99.99,0,WeatherLink 5.7,2013-03-10 10:55:00,
2013-03-10 05:00:00,17.7,12.6,30.29,North,-999,0.0,0.0,80,0.00,,,-99.99,0,WeatherLink 5.7,2013-03-10 11:00:00,
2013-03-10 05:10:00,17.7,12.6,30.29,North,-999,0.0,0.0,80,0.00,,,-99.99,0,WeatherLink 5.7,2013-03-10 11:10:00,
2013-03-10 05:15:00,17.5,12.4,30.30,East,90,0.0,3.0,80,0.00,,,-99.99,0,WeatherLink 5.7,2013-03-10 11:15:00,
2013-03-10 05:25:00,17.0,11.6,30.30,East,90,0.0,2.0,79,0.00,,,-99.99,0,WeatherLink 5.7,2013-03-10 11:25:00,
2013-03-10 05:30:00,16.9,11.8,30.31,East,90,1.0,3.0,80,0.00,,,-99.99,0,WeatherLink 5.7,2013-03-10 11:30:00,
2013-03-10 05:40:00,16.4,11.3,30.31,East,90,1.0,3.0,80,0.00,,,-99.99,0,WeatherLink 5.7,2013-03-10 11:40:00,
2013-03-10 05:50:00,15.9,10.8,30.33,ESE,112,2.0,3.0,80,0.00,,,-99.99,0,WeatherLink 5.7,2013-03-10 11:50:00,
2013-03-10 05:55:00,15.8,10.7,30.33,ESE,112,2.0,3.0,80,0.00,,,-99.99,0,WeatherLink 5.7,2013-03-10 11:55:00,
2013-03-10 06:00:00,15.8,10.7,30.34,ESE,112,1.0,3.0,80,0.00,,,-99.99,0,WeatherLink 5.7,2013-03-10 12:00:00,
2013-03-10 06:10:00,15.6,10.8,30.34,SE,135,2.0,5.0,81,0.00,,,-99.99,0,WeatherLink 5.7,2013-03-10 12:10:00,
2013-03-10 06:20:00,15.1,10.0,30.34,East,90,2.0,3.0,80,0.00,,,-99.99,0,WeatherLink 5.7,2013-03-10 12:20:00,
2013-03-10 06:25:00,14.9,10.1,30.34,East,90,0.0,2.0,81,0.00,,,-99.99,0,WeatherLink 5.7,2013-03-10 12:25:00,
2013-03-10 06:35:00,14.8,10.0,30.35,East,90,1.0,3.0,81,0.00,,,-99.99,0,WeatherLink 5.7,2013-03-10 12:35:00,
2013-03-10 06:40:00,14.6,9.6,30.35,East,90,2.0,3.0,80,0.00,,,-99.99,0,WeatherLink 5.7,2013-03-10 12:40:00,
2013-03-10 06:45:00,14.5,9.7,30.36,East,90,1.0,3.0,81,0.00,,,-99.99,0,WeatherLink 5.7,2013-03-10 12:45:00,
2013-03-10 06:55:00,14.3,9.3,30.36,East,90,2.0,3.0,80,0.00,,,-99.99,0,WeatherLink 5.7,2013-03-10 12:55:00,
2013-03-10 07:00:00,14.1,9.1,30.37,East,90,0.0,2.0,80,0.00,,,-99.99,0,WeatherLink 5.7,2013-03-10 13:00:00,
2013-03-10 07:10:00,14.1,9.1,30.37,East,90,0.0,1.0,80,0.00,,,-99.99,0,WeatherLink 5.7,2013-03-10 13:10:00,
2013-03-10 07:15:00,14.1,9.1,30.38,East,90,0.0,3.0,80,0.00,,,-99.99,0,WeatherLink 5.7,2013-03-10 13:15:00,
2013-03-10 07:20:00,14.0,9.0,30.38,East,90,1.0,3.0,80,0.00,,,-99.99,0,WeatherLink 5.7,2013-03-10 13:20:00,
2013-03-10 07:30:00,13.8,8.8,30.39,ESE,112,1.0,4.0,80,0.00,,,-99.99,0,WeatherLink 5.7,2013-03-10 13:30:00,
2013-03-10 07:35:00,13.7,8.7,30.39,SE,135,1.0,3.0,80,0.00,,,-99.99,4,WeatherLink 5.7,2013-03-10 13:35:00,
2013-03-10 07:45:00,13.3,8.3,30.41,ESE,112,2.0,4.0,80,0.00,,,-99.99,11,WeatherLink 5.7,2013-03-10 13:45:00,
2013-03-10 07:50:00,13.3,8.3,30.41,ESE,112,2.0,4.0,80,0.00,,,-99.99,13,WeatherLink 5.7,2013-03-10 13:50:00,
2013-03-10 08:00:00,13.0,8.0,30.41,East,90,2.0,4.0,80,0.00,,,-99.99,17,WeatherLink 5.7,2013-03-10 14:00:00,
2013-03-10 08:10:00,13.2,8.2,30.41,East,90,2.0,4.0,80,0.00,,,-99.99,21,WeatherLink 5.7,2013-03-10 14:10:00,
2013-03-10 08:15:00,13.2,8.2,30.41,East,90,1.0,3.0,80,0.00,,,-99.99,25,WeatherLink 5.7,2013-03-10 14:15:00,
2013-03-10 08:25:00,13.3,8.3,30.41,East,90,0.0,3.0,80,0.00,,,-99.99,25,WeatherLink 5.7,2013-03-10 14:25:00,
2013-03-10 08:30:00,13.3,8.3,30.42,East,90,1.0,3.0,80,0.00,,,-99.99,25,WeatherLink 5.7,2013-03-10 14:30:00,
2013-03-10 08:35:00,13.5,8.8,30.42,East,90,2.0,4.0,81,0.00,,,-99.99,110,WeatherLink 5.7,2013-03-10 14:35:00,
2013-03-10 08:45:00,14.8,9.7,30.41,East,90,3.0,4.0,80,0.00,,,-99.99,234,WeatherLink 5.7,2013-03-10 14:45:00,
2013-03-10 08:50:00,15.3,10.2,30.41,East,90,2.0,4.0,80,0.00,,,-99.99,248,WeatherLink 5.7,2013-03-10 14:50:00,
2013-03-10 09:00:00,16.1,10.4,30.40,ESE,112,2.0,3.0,78,0.00,,,-99.99,281,WeatherLink 5.7,2013-03-10 15:00:00,
2013-03-10 09:10:00,16.6,10.1,30.40,ESE,112,3.0,5.0,75,0.00,,,-99.99,315,WeatherLink 5.7,2013-03-10 15:10:00,
2013-03-10 09:20:00,17.4,10.8,30.40,ESE,112,3.0,4.0,75,0.00,,,-99.99,354,WeatherLink 5.7,2013-03-10 15:20:00,
2013-03-10 09:25:00,17.7,10.8,30.40,ESE,112,2.0,4.0,74,0.00,,,-99.99,374,WeatherLink 5.7,2013-03-10 15:25:00,
2013-03-10 09:30:00,18.0,11.1,30.39,East,90,2.0,5.0,74,0.00,,,-99.99,394,WeatherLink 5.7,2013-03-10 15:30:00,
2013-03-10 09:40:00,18.9,11.7,30.39,ESE,112,2.0,5.0,73,0.00,,,-99.99,426,WeatherLink 5.7,2013-03-10 15:40:00,
2013-03-10 09:50:00,19.6,12.0,30.39,ESE,112,2.0,5.0,72,0.00,,,-99.99,456,WeatherLink 5.7,2013-03-10 15:50:00,
2013-03-10 09:55:00,20.0,12.1,30.39,ESE,112,3.0,7.0,71,0.00,,,-99.99,471,WeatherLink 5.7,2013-03-10 15:55:00,
2013-03-10 10:00:00,20.5,12.9,30.37,ESE,112,2.0,6.0,72,0.00,,,-99.99,486,WeatherLink 5.7,2013-03-10 16:00:00,
2013-03-10 10:10:00,21.0,13.1,30.37,East,90,3.0,5.0,71,0.00,,,-99.99,519,WeatherLink 5.7,2013-03-10 16:10:00,
2013-03-10 10:20:00,21.9,13.6,30.38,ESE,112,0.0,4.0,70,0.00,,,-99.99,547,WeatherLink 5.7,2013-03-10 16:20:00,
2013-03-10 10:25:00,22.6,14.3,30.38,East,90,1.0,4.0,70,0.00,,,-99.99,563,WeatherLink 5.7,2013-03-10 16:25:00,
2013-03-10 10:30:00,22.7,14.1,30.36,East,90,1.0,4.0,69,0.00,,,-99.99,578,WeatherLink 5.7,2013-03-10 16:30:00,
2013-03-10 10:40:00,23.3,14.0,30.36,East,90,2.0,4.0,67,0.00,,,-99.99,607,WeatherLink 5.7,2013-03-10 16:40:00,
2013-03-10 10:45:00,23.9,14.5,30.36,ESE,112,2.0,5.0,67,0.00,,,-99.99,621,WeatherLink 5.7,2013-03-10 16:45:00,
2013-03-10 10:50:00,24.4,14.7,30.36,East,90,1.0,4.0,66,0.00,,,-99.99,633,WeatherLink 5.7,2013-03-10 16:50:00,
2013-03-10 11:00:00,25.5,15.7,30.34,East,90,1.0,5.0,66,0.00,,,-99.99,659,WeatherLink 5.7,2013-03-10 17:00:00,
2013-03-10 11:10:00,26.7,16.9,30.34,East,90,0.0,4.0,66,0.00,,,-99.99,684,WeatherLink 5.7,2013-03-10 17:10:00,
2013-03-10 11:20:00,27.6,15.9,30.33,ESE,112,1.0,4.0,61,0.00,,,-99.99,709,WeatherLink 5.7,2013-03-10 17:20:00,
2013-03-10 11:25:00,27.2,15.9,30.33,East,90,2.0,4.0,62,0.00,,,-99.99,720,WeatherLink 5.7,2013-03-10 17:25:00,
2013-03-10 11:30:00,27.6,16.6,30.32,ESE,112,1.0,4.0,63,0.00,,,-99.99,727,WeatherLink 5.7,2013-03-10 17:30:00,
2013-03-10 11:35:00,27.8,16.5,30.32,East,90,2.0,5.0,62,0.01,,,-99.99,741,WeatherLink 5.7,2013-03-10 17:35:00,
2013-03-10 11:45:00,28.2,16.5,30.31,East,90,1.0,4.0,61,0.01,,,-99.99,762,WeatherLink 5.7,2013-03-10 17:45:00,
2013-03-10 11:50:00,28.4,17.0,30.31,East,90,1.0,4.0,62,0.01,,,-99.99,771,WeatherLink 5.7,2013-03-10 17:50:00,
2013-03-10 12:00:00,30.1,17.9,30.30,North,-999,0.0,0.0,60,0.01,,,-99.99,789,WeatherLink 5.7,2013-03-10 18:00:00,
2013-03-10 12:10:00,32.1,16.4,30.30,North,-999,0.0,0.0,52,0.01,,,-99.99,805,WeatherLink 5.7,2013-03-10 18:10:00,
2013-03-10 12:15:00,32.5,17.2,30.31,North,-999,0.0,0.0,53,0.01,,,-99.99,812,WeatherLink 5.7,2013-03-10 18:15:00,
2013-03-10 12:20:00,32.9,17.2,30.31,WNW,292,0.0,1.0,52,0.01,,,-99.99,816,WeatherLink 5.7,2013-03-10 18:20:00,
2013-03-10 12:30:00,32.9,18.1,30.29,NW,315,1.0,5.0,54,0.01,,,-99.99,827,WeatherLink 5.7,2013-03-10 18:30:00,
2013-03-10 12:35:00,33.5,19.0,30.29,WSW,247,0.0,3.0,55,0.00,,,-99.99,832,WeatherLink 5.7,2013-03-10 18:35:00,
2013-03-10 12:45:00,34.0,18.2,30.27,NW,315,0.0,3.0,52,0.00,,,-99.99,839,WeatherLink 5.7,2013-03-10 18:45:00,
2013-03-10 12:50:00,34.4,17.7,30.27,NNW,337,0.0,4.0,50,0.00,,,-99.99,839,WeatherLink 5.7,2013-03-10 18:50:00,
2013-03-10 13:00:00,34.7,15.0,30.26,SW,225,0.0,2.0,44,0.00,,,-99.99,843,WeatherLink 5.7,2013-03-10 19:00:00,
2013-03-10 13:10:00,35.6,15.8,30.26,West,270,1.0,5.0,44,0.00,,,-99.99,848,WeatherLink 5.7,2013-03-10 19:10:00,
2013-03-10 13:15:00,35.5,15.7,30.26,West,270,1.0,4.0,44,0.00,,,-99.99,848,WeatherLink 5.7,2013-03-10 19:15:00,
2013-03-10 13:25:00,36.0,16.7,30.26,NW,315,0.0,2.0,45,0.00,,,-99.99,849,WeatherLink 5.7,2013-03-10 19:25:00,
2013-03-10 13:30:00,35.7,16.4,30.26,NW,315,1.0,5.0,45,0.00,,,-99.99,849,WeatherLink 5.7,2013-03-10 19:30:00,
2013-03-10 13:40:00,36.6,17.2,30.26,West,270,0.0,3.0,45,0.00,,,-99.99,846,WeatherLink 5.7,2013-03-10 19:40:00,
2013-03-10 13:45:00,36.6,16.7,30.24,NW,315,1.0,4.0,44,0.00,,,-99.99,846,WeatherLink 5.7,2013-03-10 19:45:00,
2013-03-10 13:55:00,37.0,15.5,30.24,WSW,247,0.0,3.0,41,0.00,,,-99.99,842,WeatherLink 5.7,2013-03-10 19:55:00,
2013-03-10 14:00:00,36.3,15.9,30.24,SSW,202,0.0,1.0,43,0.00,,,-99.99,841,WeatherLink 5.7,2013-03-10 20:00:00,
2013-03-10 14:10:00,38.0,16.4,30.24,West,270,0.0,3.0,41,0.00,,,-99.99,833,WeatherLink 5.7,2013-03-10 20:10:00,
2013-03-10 14:20:00,38.0,18.0,30.23,West,270,1.0,5.0,44,0.00,,,-99.99,825,WeatherLink 5.7,2013-03-10 20:20:00,
2013-03-10 14:30:00,38.0,16.4,30.22,WSW,247,0.0,3.0,41,0.00,,,-99.99,813,WeatherLink 5.7,2013-03-10 20:30:00,
2013-03-10 14:35:00,38.3,17.7,30.22,WSW,247,0.0,3.0,43,0.00,,,-99.99,806,WeatherLink 5.7,2013-03-10 20:35:00,
2013-03-10 14:40:00,37.2,17.8,30.22,East,90,2.0,4.0,45,0.00,,,-99.99,797,WeatherLink 5.7,2013-03-10 20:40:00,
2013-03-10 14:50:00,39.5,17.7,30.22,WSW,247,1.0,4.0,41,0.00,,,-99.99,785,WeatherLink 5.7,2013-03-10 20:50:00,
2013-03-10 14:55:00,39.8,19.6,30.22,WSW,247,0.0,4.0,44,0.00,,,-99.99,785,WeatherLink 5.7,2013-03-10 20:55:00,
2013-03-10 15:00:00,39.6,18.4,30.20,WSW,247,1.0,6.0,42,0.00,,,-99.99,773,WeatherLink 5.7,2013-03-10 21:00:00,
2013-03-10 15:10:00,39.5,17.7,30.20,NW,315,1.0,4.0,41,0.00,,,-99.99,749,WeatherLink 5.7,2013-03-10 21:10:00,
2013-03-10 15:15:00,39.3,18.6,30.22,NW,315,1.0,4.0,43,0.00,,,-99.99,738,WeatherLink 5.7,2013-03-10 21:15:00,
2013-03-10 15:25:00,39.8,19.1,30.22,WNW,292,1.0,5.0,43,0.00,,,-99.99,720,WeatherLink 5.7,2013-03-10 21:25:00,
2013-03-10 15:30:00,39.9,18.6,30.22,NW,315,2.0,6.0,42,0.00,,,-99.99,720,WeatherLink 5.7,2013-03-10 21:30:00,
2013-03-10 15:40:00,39.9,18.6,30.22,NNW,337,2.0,6.0,42,0.00,,,-99.99,701,WeatherLink 5.7,2013-03-10 21:40:00,
2013-03-10 15:45:00,39.6,18.9,30.22,West,270,1.0,4.0,43,0.00,,,-99.99,694,WeatherLink 5.7,2013-03-10 21:45:00,
2013-03-10 15:50:00,40.2,20.0,30.22,WSW,247,1.0,3.0,44,0.00,,,-99.99,683,WeatherLink 5.7,2013-03-10 21:50:00,
2013-03-10 16:00:00,40.3,20.1,30.22,West,270,1.0,4.0,44,0.00,,,-99.99,646,WeatherLink 5.7,2013-03-10 22:00:00,
2013-03-10 16:10:00,40.9,20.6,30.22,NW,315,1.0,5.0,44,0.00,,,-99.99,618,WeatherLink 5.7,2013-03-10 22:10:00,
2013-03-10 16:20:00,40.6,19.3,30.23,NW,315,2.0,4.0,42,0.00,,,-99.99,589,WeatherLink 5.7,2013-03-10 22:20:00,
2013-03-10 16:30:00,40.8,20.5,30.23,West,270,1.0,4.0,44,0.00,,,-99.99,552,WeatherLink 5.7,2013-03-10 22:30:00,
2013-03-10 16:35:00,40.6,19.8,30.23,NNW,337,1.0,4.0,43,0.00,,,-99.99,539,WeatherLink 5.7,2013-03-10 22:35:00,
2013-03-10 16:40:00,40.8,20.0,30.23,NW,315,0.0,3.0,43,0.00,,,-99.99,435,WeatherLink 5.7,2013-03-10 22:40:00,
2013-03-10 16:50:00,41.3,19.9,30.23,West,270,0.0,3.0,42,0.00,,,-99.99,371,WeatherLink 5.7,2013-03-10 22:50:00,
2013-03-10 17:00:00,42.2,21.3,30.21,WSW,247,0.0,2.0,43,0.00,,,-99.99,474,WeatherLink 5.7,2013-03-10 23:00:00,
2013-03-10 17:10:00,41.9,20.4,30.21,WNW,292,0.0,4.0,42,0.00,,,-99.99,421,WeatherLink 5.7,2013-03-10 23:10:00,
2013-03-10 17:15:00,41.9,21.0,30.21,West,270,0.0,3.0,43,0.00,,,-99.99,326,WeatherLink 5.7,2013-03-10 23:15:00,
2013-03-10 17:20:00,41.9,21.0,30.21,West,270,0.0,2.0,43,0.00,,,-99.99,225,WeatherLink 5.7,2013-03-10 23:20:00,
2013-03-10 17:25:00,41.8,20.4,30.21,West,270,0.0,1.0,42,0.00,,,-99.99,181,WeatherLink 5.7,2013-03-10 23:25:00,
2013-03-10 17:30:00,41.2,20.9,30.23,WNW,292,1.0,4.0,44,0.00,,,-99.99,210,WeatherLink 5.7,2013-03-10 23:30:00,
2013-03-10 17:40:00,40.9,20.6,30.23,NNW,337,1.0,3.0,44,0.00,,,-99.99,183,WeatherLink 5.7,2013-03-10 23:40:00,
2013-03-10 17:45:00,40.8,21.6,30.24,NNW,337,0.0,2.0,46,0.00,,,-99.99,128,WeatherLink 5.7,2013-03-10 23:45:00,
2013-03-10 17:55:00,41.0,21.8,30.24,NNW,337,0.0,3.0,46,0.00,,,-99.99,171,WeatherLink 5.7,2013-03-10 23:55:00,
2013-03-10 18:00:00,41.0,21.3,30.24,SW,225,0.0,1.0,45,0.00,,,-99.99,69,WeatherLink 5.7,2013-03-11 00:00:00,
2013-03-10 18:10:00,39.8,21.7,30.24,SW,225,0.0,2.0,48,0.00,,,-99.99,26,WeatherLink 5.7,2013-03-11 00:10:00,
2013-03-10 18:20:00,39.0,21.4,30.25,North,-999,0.0,0.0,49,0.00,,,-99.99,24,WeatherLink 5.7,2013-03-11 00:20:00,
2013-03-10 18:25:00,38.6,20.6,30.25,SE,135,1.0,4.0,48,0.00,,,-99.99,22,WeatherLink 5.7,2013-03-11 00:25:00,
2013-03-10 18:35:00,38.0,20.5,30.27,SE,135,0.0,3.0,49,0.00,,,-99.99,19,WeatherLink 5.7,2013-03-11 00:35:00,
2013-03-10 18:40:00,38.0,21.0,30.27,SE,135,0.0,3.0,50,0.00,,,-99.99,17,WeatherLink 5.7,2013-03-11 00:40:00,
2013-03-10 18:50:00,37.6,22.0,30.27,North,-999,0.0,0.0,53,0.00,,,-99.99,13,WeatherLink 5.7,2013-03-11 00:50:00,
2013-03-10 18:55:00,37.3,22.2,30.27,North,-999,0.0,0.0,54,0.00,,,-99.99,12,WeatherLink 5.7,2013-03-11 00:55:00,
2013-03-10 19:00:00,36.9,21.8,30.28,North,-999,0.0,0.0,54,0.00,,,-99.99,10,WeatherLink 5.7,2013-03-11 01:00:00,
2013-03-10 19:05:00,36.3,21.7,30.28,North,-999,0.0,0.0,55,0.00,,,-99.99,8,WeatherLink 5.7,2013-03-11 01:05:00,
2013-03-10 19:15:00,35.7,21.9,30.31,SE,135,0.0,2.0,57,0.00,,,-99.99,2,WeatherLink 5.7,2013-03-11 01:15:00,
2013-03-10 19:20:00,35.5,22.2,30.31,North,-999,0.0,0.0,58,0.00,,,-99.99,0,WeatherLink 5.7,2013-03-11 01:20:00,
2013-03-10 19:30:00,34.9,22.0,30.32,North,-999,0.0,0.0,59,0.00,,,-99.99,0,WeatherLink 5.7,2013-03-11 01:30:00,
2013-03-10 19:35:00,34.4,21.9,30.32,North,-999,0.0,0.0,60,0.00,,,-99.99,0,WeatherLink 5.7,2013-03-11 01:35:00,
2013-03-10 19:45:00,33.7,22.1,30.33,North,-999,0.0,0.0,62,0.00,,,-99.99,0,WeatherLink 5.7,2013-03-11 01:45:00,
2013-03-10 19:50:00,33.2,22.0,30.33,SE,135,0.0,3.0,63,0.00,,,-99.99,0,WeatherLink 5.7,2013-03-11 01:50:00,
2013-03-10 20:00:00,33.2,21.6,30.33,SE,135,0.0,2.0,62,0.00,,,-99.99,0,WeatherLink 5.7,2013-03-11 02:00:00,
2013-03-10 20:10:00,32.9,21.3,30.33,North,-999,0.0,0.0,62,0.00,,,-99.99,0,WeatherLink 5.7,2013-03-11 02:10:00,
2013-03-10 20:15:00,32.5,21.3,30.32,North,-999,0.0,0.0,63,0.00,,,-99.99,0,WeatherLink 5.7,2013-03-11 02:15:00,
2013-03-10 20:25:00,32.1,21.3,30.32,North,-999,0.0,0.0,64,0.00,,,-99.99,0,WeatherLink 5.7,2013-03-11 02:25:00,
2013-03-10 20:30:00,31.9,21.1,30.33,SE,135,0.0,2.0,64,0.00,,,-99.99,0,WeatherLink 5.7,2013-03-11 02:30:00,
2013-03-10 20:40:00,31.6,20.8,30.33,SE,135,0.0,2.0,64,0.00,,,-99.99,0,WeatherLink 5.7,2013-03-11 02:40:00,
2013-03-10 20:45:00,31.6,21.2,30.33,SE,135,1.0,4.0,65,0.00,,,-99.99,0,WeatherLink 5.7,2013-03-11 02:45:00,
2013-03-10 20:55:00,31.0,21.0,30.33,East,90,1.0,4.0,66,0.00,,,-99.99,0,WeatherLink 5.7,2013-03-11 02:55:00,
2013-03-10 21:00:00,30.6,20.9,30.35,East,90,1.0,3.0,67,0.00,,,-99.99,0,WeatherLink 5.7,2013-03-11 03:00:00,
2013-03-10 21:10:00,30.4,20.4,30.35,SE,135,0.0,2.0,66,0.00,,,-99.99,0,WeatherLink 5.7,2013-03-11 03:10:00,
2013-03-10 21:15:00,30.3,20.3,30.32,SE,135,0.0,1.0,66,0.00,,,-99.99,0,WeatherLink 5.7,2013-03-11 03:15:00,
2013-03-10 21:20:00,30.3,20.3,30.32,SE,135,0.0,1.0,66,0.00,,,-99.99,0,WeatherLink 5.7,2013-03-11 03:20:00,
2013-03-10 21:30:00,30.0,20.4,30.34,North,-999,0.0,0.0,67,0.00,,,-99.99,0,WeatherLink 5.7,2013-03-11 03:30:00,
2013-03-10 21:35:00,30.0,21.1,30.34,SE,135,0.0,2.0,69,0.00,,,-99.99,0,WeatherLink 5.7,2013-03-11 03:35:00,
2013-03-10 21:45:00,29.5,20.2,30.34,North,-999,0.0,0.0,68,0.00,,,-99.99,0,WeatherLink 5.7,2013-03-11 03:45:00,
2013-03-10 21:55:00,29.1,19.5,30.34,North,-999,0.0,0.0,67,0.00,,,-99.99,0,WeatherLink 5.7,2013-03-11 03:55:00,
2013-03-10 22:00:00,28.8,19.6,30.34,North,-999,0.0,0.0,68,0.00,,,-99.99,0,WeatherLink 5.7,2013-03-11 04:00:00,
2013-03-10 22:05:00,28.8,19.9,30.34,SE,135,0.0,2.0,69,0.00,,,-99.99,0,WeatherLink 5.7,2013-03-11 04:05:00,
2013-03-10 22:10:00,28.7,19.8,30.34,SE,135,0.0,1.0,69,0.00,,,-99.99,0,WeatherLink 5.7,2013-03-11 04:10:00,
2013-03-10 22:15:00,28.5,20.0,30.31,SE,135,0.0,1.0,70,0.00,,,-99.99,0,WeatherLink 5.7,2013-03-11 04:15:00,
2013-03-10 22:20:00,28.7,20.5,30.31,ESE,112,1.0,3.0,71,0.00,,,-99.99,0,WeatherLink 5.7,2013-03-11 04:20:00,
2013-03-10 22:25:00,28.5,20.6,30.31,ESE,112,1.0,3.0,72,0.00,,,-99.99,0,WeatherLink 5.7,2013-03-11 04:25:00,
2013-03-10 22:30:00,28.2,20.7,30.32,ESE,112,2.0,3.0,73,0.00,,,-99.99,0,WeatherLink 5.7,2013-03-11 04:30:00,
2013-03-10 22:40:00,27.9,20.7,30.32,ESE,112,0.0,3.0,74,0.00,,,-99.99,0,WeatherLink 5.7,2013-03-11 04:40:00,
2013-03-10 22:45:00,27.9,21.0,30.33,ESE,112,2.0,3.0,75,0.00,,,-99.99,0,WeatherLink 5.7,2013-03-11 04:45:00,
2013-03-10 22:55:00,27.6,21.0,30.33,ESE,112,0.0,1.0,76,0.00,,,-99.99,0,WeatherLink 5.7,2013-03-11 04:55:00,
2013-03-10 23:00:00,27.5,20.9,30.33,ESE,112,0.0,2.0,76,0.00,,,-99.99,0,WeatherLink 5.7,2013-03-11 05:00:00,
2013-03-10 23:10:00,27.2,20.6,30.33,North,-999,0.0,0.0,76,0.00,,,-99.99,0,WeatherLink 5.7,2013-03-11 05:10:00,
2013-03-10 23:15:00,27.0,20.4,30.32,North,-999,0.0,0.0,76,0.00,,,-99.99,0,WeatherLink 5.7,2013-03-11 05:15:00,
2013-03-10 23:20:00,26.9,20.3,30.32,North,-999,0.0,0.0,76,0.00,,,-99.99,0,WeatherLink 5.7,2013-03-11 05:20:00,
2013-03-10 23:25:00,26.7,20.1,30.32,North,-999,0.0,0.0,76,0.00,,,-99.99,0,WeatherLink 5.7,2013-03-11 05:25:00,
2013-03-10 23:30:00,26.6,20.1,30.32,ESE,112,0.0,4.0,76,0.00,,,-99.99,0,WeatherLink 5.7,2013-03-11 05:30:00,
2013-03-10 23:40:00,26.6,19.7,30.32,North,-999,0.0,0.0,75,0.00,,,-99.99,0,WeatherLink 5.7,2013-03-11 05:40:00,
2013-03-10 23:45:00,26.4,19.2,30.32,SE,135,0.0,4.0,74,0.00,,,-99.99,0,WeatherLink 5.7,2013-03-11 05:45:00,
2013-03-10 23:55:00,26.6,19.7,30.32,SE,135,1.0,4.0,75,0.00,,,-99.99,0,WeatherLink 5.7,2013-03-11 05:55:00,